Time;durP1;ratioP1;P1;durP2;ratioP2;P2;SDS_P1;SDS_P2;PMS_P1;PMS_P2;Temp;Humidity;BMP_temperature;BMP_pressure;BME280_temperature;BME280_humidity;BME280_pressure;Samples;Min_cycle;Max_cycle;Signal;HPM_P1;HPM_P2
2022/01/20 00:01:45;;;;;;;63.20;28.00;;;;;-8.22;98150.20;;;;111815;1241;41914;-61
2022/01/20 00:04:43;;;;;;;57.20;26.40;;;;;-8.30;98142.40;;;;111826;1241;41176;-61
2022/01/20 00:20:29;;;;;;;47.20;21.70;;;;;-8.30;98126.80;;;;111775;1241;42051;-59
2022/01/20 00:26:17;;;;;;;38.80;17.60;;;;;-8.40;98111.40;;;;111568;1242;41143;-61
2022/01/20 00:28:51;;;;;;;38.70;18.60;;;;;-8.40;98115.60;;;;111741;1240;41128;-60
2022/01/20 00:34:10;;;;;;;34.60;16.50;;;;;-8.40;98112.20;;;;111604;1243;42271;-60
2022/01/20 00:39:29;;;;;;;35.70;15.70;;;;;-8.40;98100.00;;;;111835;1241;41598;-62
2022/01/20 00:41:58;;;;;;;34.20;14.20;;;;;-8.40;98098.20;;;;111822;1241;41386;-60
2022/01/20 00:44:28;;;;;;;40.10;17.50;;;;;-8.38;98096.00;;;;111560;1241;41216;-60
2022/01/20 00:46:58;;;;;;;34.40;15.10;;;;;-8.30;98101.20;;;;111581;1244;41169;-60
2022/01/20 00:49:29;;;;;;;32.10;14.80;;;;;-8.30;98095.80;;;;111826;1241;41215;-59
2022/01/20 00:51:58;;;;;;;32.10;15.10;;;;;-8.30;98085.40;;;;111944;1241;40884;-60
2022/01/20 00:54:27;;;;;;;41.10;17.80;;;;;-8.30;98076.60;;;;111865;1241;41448;-59
2022/01/20 00:56:58;;;;;;;37.60;17.20;;;;;-8.30;98083.80;;;;111841;1241;41140;-60
2022/01/20 00:59:29;;;;;;;40.70;18.00;;;;;-8.30;98072.80;;;;111589;1243;42536;-60
2022/01/20 01:02:08;;;;;;;35.10;16.70;;;;;-8.30;98067.40;;;;111603;1244;41184;-58
2022/01/20 01:04:41;;;;;;;39.60;17.50;;;;;-8.30;98055.60;;;;111618;1241;41427;-60
2022/01/20 01:09:46;;;;;;;38.50;18.80;;;;;-8.40;98062.60;;;;111808;1241;41133;-58
2022/01/20 01:12:25;;;;;;;47.70;21.10;;;;;-8.40;98058.20;;;;111784;1241;41224;-59
2022/01/20 01:14:55;;;;;;;41.00;18.80;;;;;-8.50;98054.00;;;;111845;1241;41946;-60
2022/01/20 01:22:31;;;;;;;52.80;23.70;;;;;-8.68;98051.60;;;;111776;1242;41959;-61
2022/01/20 01:25:02;;;;;;;50.30;21.10;;;;;-8.70;98052.40;;;;111562;1241;41141;-61
2022/01/20 01:27:37;;;;;;;44.50;21.50;;;;;-8.78;98050.20;;;;111839;1241;41145;-62
2022/01/20 01:32:51;;;;;;;49.60;22.50;;;;;-8.90;98059.20;;;;111869;1241;41296;-59
2022/01/20 01:35:23;;;;;;;42.70;20.00;;;;;-8.90;98054.80;;;;111548;1241;42615;-59
2022/01/20 01:40:40;;;;;;;46.10;20.50;;;;;-9.00;98048.40;;;;111836;1241;41578;-59
2022/01/20 01:43:17;;;;;;;46.70;18.60;;;;;-9.02;98037.20;;;;111612;1244;41599;-61
2022/01/20 01:45:48;;;;;;;38.40;18.50;;;;;-9.02;98040.20;;;;111759;1241;41623;-59
2022/01/20 01:48:19;;;;;;;42.20;20.40;;;;;-9.00;98037.00;;;;111493;1241;41176;-59
2022/01/20 01:50:49;;;;;;;45.80;20.10;;;;;-9.00;98044.20;;;;111819;1241;42088;-61
2022/01/20 01:53:20;;;;;;;41.20;17.80;;;;;-9.00;98037.60;;;;111614;1244;41835;-62
2022/01/20 01:55:50;;;;;;;40.70;18.00;;;;;-9.00;98029.60;;;;111733;1241;41287;-59
2022/01/20 01:58:20;;;;;;;39.00;17.40;;;;;-8.98;98017.00;;;;111787;1241;42422;-59
2022/01/20 02:01:08;;;;;;;36.50;18.50;;;;;-8.90;98019.80;;;;111786;1241;41958;-58
2022/01/20 02:03:57;;;;;;;36.00;16.80;;;;;-8.90;98003.00;;;;111641;1241;41205;-58
2022/01/20 02:20:39;;;;;;;36.00;16.60;;;;;-9.02;97977.20;;;;111448;1241;43028;-59
2022/01/20 02:23:15;;;;;;;35.10;15.70;;;;;-9.00;97968.20;;;;111737;1241;41253;-58
2022/01/20 02:25:46;;;;;;;45.10;19.50;;;;;-9.00;97964.60;;;;111737;1241;40736;-59
2022/01/20 02:28:15;;;;;;;38.50;17.00;;;;;-9.00;97958.80;;;;111725;1241;41931;-59
2022/01/20 02:30:45;;;;;;;40.10;16.90;;;;;-9.00;97958.80;;;;111329;1243;41234;-58
2022/01/20 02:33:19;;;;;;;38.50;16.40;;;;;-9.00;97943.00;;;;111805;1241;42191;-59
2022/01/20 02:35:58;;;;;;;38.90;17.40;;;;;-8.96;97941.00;;;;111826;1241;41159;-61
2022/01/20 02:38:37;;;;;;;37.70;18.20;;;;;-8.94;97933.00;;;;111841;1241;41702;-60
2022/01/20 02:46:46;;;;;;;39.00;17.40;;;;;-9.00;97916.00;;;;111724;1241;41597;-58
2022/01/20 02:49:17;;;;;;;38.40;18.40;;;;;-9.10;97913.40;;;;111206;1244;41140;-58
2022/01/20 02:51:52;;;;;;;37.10;16.20;;;;;-9.10;97914.80;;;;111728;1241;41124;-60
2022/01/20 02:54:23;;;;;;;39.50;16.80;;;;;-9.10;97907.20;;;;111532;1241;41134;-60
2022/01/20 02:56:53;;;;;;;36.60;15.90;;;;;-9.10;97898.80;;;;111487;1242;41732;-60
2022/01/20 02:59:24;;;;;;;38.50;17.70;;;;;-9.10;97892.80;;;;111511;1244;41288;-59
2022/01/20 03:01:55;;;;;;;39.00;17.30;;;;;-9.10;97891.00;;;;111775;1241;41891;-60
2022/01/20 03:04:26;;;;;;;33.90;16.30;;;;;-9.10;97890.00;;;;111566;1241;41551;-59
2022/01/20 03:06:59;;;;;;;37.50;17.00;;;;;-9.10;97888.40;;;;111722;1241;41263;-61
2022/01/20 03:09:29;;;;;;;34.90;16.80;;;;;-9.10;97891.60;;;;111840;1241;41323;-59
2022/01/20 03:11:59;;;;;;;36.80;15.10;;;;;-9.10;97886.00;;;;111532;1244;41194;-61
2022/01/20 03:14:29;;;;;;;37.00;16.70;;;;;-9.10;97884.60;;;;111864;1241;41145;-60
2022/01/20 03:17:00;;;;;;;37.80;16.00;;;;;-9.10;97883.00;;;;111753;1241;41237;-59
2022/01/20 03:19:30;;;;;;;40.70;17.00;;;;;-9.10;97889.40;;;;111214;1243;41165;-59
2022/01/20 03:22:01;;;;;;;39.00;17.60;;;;;-9.10;97889.40;;;;111529;1241;41145;-61
2022/01/20 03:24:31;;;;;;;45.60;21.70;;;;;-9.20;97895.40;;;;111523;1243;41242;-62
2022/01/20 03:27:02;;;;;;;51.10;20.40;;;;;-9.22;97891.00;;;;111525;1244;41603;-61
2022/01/20 03:29:33;;;;;;;49.50;19.90;;;;;-9.36;97884.80;;;;111764;1242;41698;-58
2022/01/20 03:32:03;;;;;;;51.80;23.00;;;;;-9.48;97879.20;;;;111456;1244;41281;-61
2022/01/20 03:34:34;;;;;;;51.60;22.40;;;;;-9.60;97871.00;;;;111724;1241;41148;-61
2022/01/20 03:37:09;;;;;;;43.60;20.30;;;;;-9.70;97882.00;;;;111784;1241;41862;-60
2022/01/20 03:40:20;;;;;;;43.90;20.30;;;;;-9.78;97874.20;;;;111633;1242;41257;-61
2022/01/20 03:42:51;;;;;;;39.40;18.80;;;;;-9.80;97874.60;;;;111774;1241;41145;-60
2022/01/20 03:45:26;;;;;;;44.90;18.00;;;;;-9.90;97888.00;;;;111488;1241;41153;-59
2022/01/20 03:48:07;;;;;;;39.70;18.20;;;;;-9.90;97884.20;;;;111753;1241;41118;-62
2022/01/20 03:53:29;;;;;;;36.90;16.20;;;;;-10.00;97887.00;;;;111389;1243;41257;-58
2022/01/20 03:55:59;;;;;;;41.00;17.60;;;;;-10.00;97886.40;;;;111562;1243;41263;-61
2022/01/20 03:58:32;;;;;;;35.80;17.20;;;;;-9.96;97873.60;;;;111265;1244;41267;-62
2022/01/20 04:01:02;;;;;;;41.60;18.00;;;;;-9.94;97869.80;;;;111182;1244;41139;-60
2022/01/20 04:03:50;;;;;;;37.90;17.20;;;;;-9.94;97863.40;;;;111320;1244;41234;-60
2022/01/20 04:06:31;;;;;;;36.80;17.20;;;;;-9.94;97867.60;;;;111627;1241;41268;-61
2022/01/20 04:09:01;;;;;;;42.40;18.50;;;;;-9.96;97870.40;;;;111519;1244;41437;-61
2022/01/20 04:11:31;;;;;;;43.90;18.60;;;;;-10.00;97873.20;;;;111761;1242;41605;-61
2022/01/20 04:14:03;;;;;;;41.30;18.70;;;;;-10.00;97873.00;;;;111563;1241;41364;-60
2022/01/20 04:19:40;;;;;;;41.40;19.70;;;;;-10.00;97866.80;;;;111361;1244;41248;-59
2022/01/20 04:22:09;;;;;;;39.50;18.10;;;;;-10.00;97867.40;;;;111547;1242;41130;-60
2022/01/20 04:24:39;;;;;;;43.20;19.90;;;;;-10.00;97871.40;;;;111541;1242;41127;-60
2022/01/20 04:27:09;;;;;;;41.90;18.50;;;;;-10.04;97870.60;;;;111179;1246;41153;-59
2022/01/20 04:29:38;;;;;;;40.80;19.00;;;;;-10.08;97865.00;;;;111685;1243;41898;-60
2022/01/20 04:32:08;;;;;;;45.60;19.80;;;;;-10.04;97858.40;;;;111653;1242;41136;-60
2022/01/20 04:34:37;;;;;;;43.20;19.90;;;;;-10.06;97859.80;;;;111576;1242;41143;-59
2022/01/20 04:37:08;;;;;;;42.50;18.80;;;;;-10.02;97865.40;;;;111754;1243;41190;-60
2022/01/20 04:39:44;;;;;;;;;;;;;-10.06;97853.60;;;;111821;1243;41142;-59
2022/01/20 04:42:15;;;;;;;37.10;16.90;;;;;-10.08;97851.60;;;;111561;1244;41165;-60
2022/01/20 04:44:54;;;;;;;36.60;16.70;;;;;-10.10;97848.40;;;;111778;1242;41332;-60
2022/01/20 04:58:40;;;;;;;35.00;15.40;;;;;-10.20;97848.00;;;;111525;1244;41152;-61
2022/01/20 05:01:10;;;;;;;32.20;14.70;;;;;-10.20;97848.40;;;;111783;1241;41289;-61
2022/01/20 05:04:02;;;;;;;31.20;14.10;;;;;-10.20;97860.00;;;;111765;1241;41253;-61
2022/01/20 05:07:08;;;;;;;56.70;25.80;;;;;-10.24;97861.60;;;;111387;1243;41155;-59
2022/01/20 05:09:38;;;;;;;53.00;24.70;;;;;-10.30;97861.60;;;;111473;1241;41150;-60
2022/01/20 05:12:11;;;;;;;55.20;24.80;;;;;-10.50;97872.80;;;;111397;1242;41339;-59
2022/01/20 05:14:41;;;;;;;61.50;25.90;;;;;-10.60;97867.20;;;;111435;1243;41879;-61
2022/01/20 05:17:10;;;;;;;51.70;23.50;;;;;-10.60;97869.80;;;;111231;1244;41881;-62
2022/01/20 05:19:40;;;;;;;50.20;22.70;;;;;-10.70;97875.80;;;;111572;1244;41176;-61
2022/01/20 05:22:09;;;;;;;61.10;25.20;;;;;-10.72;97874.40;;;;111567;1242;41356;-61
2022/01/20 05:24:46;;;;;;;54.20;22.40;;;;;-10.80;97874.20;;;;111813;1241;41257;-62
2022/01/20 05:27:15;;;;;;;44.90;19.50;;;;;-10.80;97872.60;;;;111491;1243;41625;-61
2022/01/20 05:29:45;;;;;;;43.10;19.00;;;;;-10.80;97876.20;;;;111523;1241;41123;-59
2022/01/20 05:32:17;;;;;;;42.50;18.00;;;;;-10.80;97864.80;;;;111341;1241;41447;-61
2022/01/20 05:34:46;;;;;;;39.10;17.90;;;;;-10.80;97858.00;;;;111678;1241;41809;-59
2022/01/20 05:37:16;;;;;;;44.70;19.90;;;;;-10.72;97857.80;;;;111675;1243;41230;-62
2022/01/20 05:39:45;;;;;;;43.70;19.50;;;;;-10.70;97856.80;;;;111369;1241;41440;-61
2022/01/20 05:42:18;;;;;;;41.80;18.90;;;;;-10.70;97862.40;;;;111400;1243;41730;-61
2022/01/20 05:44:54;;;;;;;41.80;18.80;;;;;-10.70;97854.00;;;;111701;1241;41279;-61
2022/01/20 05:47:28;;;;;;;44.10;19.70;;;;;-10.70;97856.20;;;;111651;1241;41140;-58
2022/01/20 05:50:22;;;;;;;42.90;19.10;;;;;-10.70;97858.00;;;;111436;1244;42391;-60
2022/01/20 05:52:52;;;;;;;43.10;19.60;;;;;-10.60;97854.20;;;;111571;1242;40780;-58
2022/01/20 05:55:22;;;;;;;48.00;19.20;;;;;-10.60;97852.00;;;;111743;1241;41883;-58
2022/01/20 05:57:51;;;;;;;45.50;20.80;;;;;-10.60;97852.40;;;;111444;1241;41260;-58
2022/01/20 06:00:23;;;;;;;49.90;22.00;;;;;-10.60;97853.60;;;;111719;1243;41259;-60
2022/01/20 06:05:45;;;;;;;43.50;19.60;;;;;-10.52;97855.00;;;;111687;1241;41602;-59
2022/01/20 06:08:16;;;;;;;43.70;19.00;;;;;-10.50;97848.60;;;;111699;1242;41609;-61
2022/01/20 06:10:45;;;;;;;47.70;21.80;;;;;-10.50;97843.60;;;;111740;1241;41142;-59
2022/01/20 06:13:35;;;;;;;52.20;23.70;;;;;-10.50;97845.00;;;;111445;1243;41247;-59
2022/01/20 06:16:04;;;;;;;64.80;27.00;;;;;-10.50;97848.60;;;;111496;1243;42131;-60
2022/01/20 06:18:34;;;;;;;63.60;28.70;;;;;-10.46;97842.20;;;;111555;1244;41530;-58
2022/01/20 06:21:03;;;;;;;55.60;25.60;;;;;-10.44;97839.80;;;;111770;1241;41150;-59
2022/01/20 06:23:33;;;;;;;54.40;24.70;;;;;-10.44;97831.40;;;;111430;1244;41437;-59
2022/01/20 06:26:05;;;;;;;54.00;25.00;;;;;-10.40;97831.20;;;;111759;1242;41701;-59
2022/01/20 06:28:37;;;;;;;55.60;23.70;;;;;-10.40;97820.40;;;;111478;1244;41142;-58
2022/01/20 06:31:10;;;;;;;53.40;23.30;;;;;-10.34;97817.80;;;;111553;1243;41257;-61
2022/01/20 06:33:40;;;;;;;50.80;21.20;;;;;-10.30;97810.20;;;;111614;1241;42362;-61
2022/01/20 06:36:10;;;;;;;44.00;19.80;;;;;-10.28;97810.80;;;;111669;1242;41134;-60
2022/01/20 06:38:39;;;;;;;50.30;20.40;;;;;-10.20;97823.00;;;;111532;1244;41701;-61
2022/01/20 06:41:08;;;;;;;46.10;20.80;;;;;-10.20;97828.20;;;;111771;1241;41344;-59
2022/01/20 06:43:37;;;;;;;44.30;19.70;;;;;-10.10;97829.20;;;;111460;1244;41136;-59
2022/01/20 06:46:07;;;;;;;43.00;17.80;;;;;-10.04;97838.80;;;;111294;1244;41144;-59
2022/01/20 06:49:10;;;;;;;51.10;23.00;;;;;-9.90;97828.60;;;;111222;1244;41273;-60
2022/01/20 06:51:47;;;;;;;70.50;30.30;;;;;-9.80;97833.20;;;;111803;1241;41268;-59
2022/01/20 06:54:17;;;;;;;91.50;38.00;;;;;-9.70;97828.00;;;;111475;1244;41259;-59
2022/01/20 06:56:47;;;;;;;97.60;40.80;;;;;-9.60;97819.60;;;;111773;1242;41127;-61
2022/01/20 06:59:18;;;;;;;87.60;38.60;;;;;-9.50;97819.00;;;;111563;1244;41145;-58
2022/01/20 07:01:48;;;;;;;93.20;41.00;;;;;-9.40;97819.80;;;;111551;1244;41610;-60
2022/01/20 07:04:21;;;;;;;93.40;41.10;;;;;-9.20;97812.20;;;;111686;1241;41703;-59
2022/01/20 07:06:50;;;;;;;80.20;35.50;;;;;-9.00;97798.20;;;;111728;1242;41254;-61
2022/01/20 07:09:39;;;;;;;81.90;35.80;;;;;-8.70;97799.00;;;;111622;1243;41139;-59
2022/01/20 07:12:19;;;;;;;152.10;60.60;;;;;-8.42;97793.60;;;;111691;1241;41612;-60
2022/01/20 07:14:48;;;;;;;170.40;67.90;;;;;-8.30;97798.00;;;;111711;1243;42529;-58
2022/01/20 07:17:18;;;;;;;106.10;44.40;;;;;-8.10;97787.60;;;;111537;1244;41136;-61
2022/01/20 07:19:50;;;;;;;120.00;50.00;;;;;-7.90;97789.40;;;;111552;1241;41146;-59
2022/01/20 07:22:20;;;;;;;117.00;47.80;;;;;-7.74;97785.40;;;;111509;1241;41378;-59
2022/01/20 07:24:50;;;;;;;126.20;49.00;;;;;-7.70;97803.80;;;;111450;1243;41552;-60
2022/01/20 07:27:31;;;;;;;62.60;29.00;;;;;-7.52;97805.20;;;;111402;1243;41133;-59
2022/01/20 07:30:09;;;;;;;52.90;22.30;;;;;-7.30;97805.60;;;;111381;1243;41144;-58
2022/01/20 07:32:39;;;;;;;53.90;24.30;;;;;-7.10;97815.80;;;;111480;1243;41136;-60
2022/01/20 07:35:17;;;;;;;65.30;27.90;;;;;-6.70;97804.00;;;;111735;1243;41871;-60
2022/01/20 07:37:48;;;;;;;59.80;26.40;;;;;-6.30;97795.40;;;;111529;1243;41150;-60
2022/01/20 07:40:17;;;;;;;45.90;21.80;;;;;-5.90;97784.40;;;;111711;1243;41597;-61
2022/01/20 07:42:47;;;;;;;43.10;20.30;;;;;-5.50;97788.00;;;;111466;1241;41716;-59
2022/01/20 07:45:39;;;;;;;61.50;25.40;;;;;-5.10;97785.40;;;;111774;1241;41606;-60
2022/01/20 07:48:29;;;;;;;71.30;28.30;;;;;-4.66;97784.60;;;;111684;1243;41406;-61
2022/01/20 07:51:15;;;;;;;53.60;23.20;;;;;-4.30;97785.20;;;;111254;1244;41516;-59
2022/01/20 07:53:44;;;;;;;50.60;23.90;;;;;-4.08;97793.20;;;;111794;1243;41260;-59
2022/01/20 07:56:13;;;;;;;59.20;25.10;;;;;-3.80;97793.80;;;;111495;1243;42378;-61
2022/01/20 07:58:43;;;;;;;65.20;29.70;;;;;-3.50;97794.80;;;;111531;1243;41147;-61
2022/01/20 08:01:12;;;;;;;63.30;29.00;;;;;-3.20;97782.00;;;;111729;1241;41229;-60
2022/01/20 08:03:55;;;;;;;52.10;25.20;;;;;-2.94;97785.20;;;;111611;1244;41286;-60
2022/01/20 08:06:27;;;;;;;54.00;25.40;;;;;-2.70;97775.40;;;;111637;1244;42220;-61
2022/01/20 08:09:04;;;;;;;55.80;25.20;;;;;-2.42;97781.00;;;;111654;1241;41248;-61
2022/01/20 08:11:48;;;;;;;83.30;39.20;;;;;-2.06;97771.80;;;;111657;1241;41941;-61
2022/01/20 08:14:40;;;;;;;115.20;51.00;;;;;-1.50;97752.60;;;;111478;1243;42193;-61
2022/01/20 08:17:12;;;;;;;98.10;46.80;;;;;-0.88;97743.00;;;;111485;1244;41165;-60
2022/01/20 08:19:45;;;;;;;84.80;39.20;;;;;0.28;97725.20;;;;111484;1244;41139;-60
2022/01/20 08:22:15;;;;;;;66.20;32.00;;;;;1.94;97705.40;;;;111785;1243;41253;-59
2022/01/20 08:25:05;;;;;;;72.40;30.90;;;;;3.98;97688.40;;;;111549;1244;42063;-59
2022/01/20 08:27:34;;;;;;;;;;;;;5.86;97679.00;;;;111524;1244;41189;-60
2022/01/20 08:30:09;;;;;;;69.10;34.00;;;;;7.62;97674.60;;;;111426;1241;41482;-61
2022/01/20 08:32:39;;;;;;;83.00;42.80;;;;;8.92;97674.40;;;;111412;1243;41186;-59
2022/01/20 08:35:23;;;;;;;78.80;39.70;;;;;8.78;97663.40;;;;111553;1244;41931;-58
2022/01/20 08:37:56;;;;;;;77.70;37.30;;;;;9.80;97658.80;;;;111398;1243;41161;-59
2022/01/20 08:40:26;;;;;;;70.90;36.10;;;;;11.20;97644.40;;;;111522;1243;41123;-60
2022/01/20 08:42:56;;;;;;;64.10;33.30;;;;;12.48;97636.60;;;;111327;1243;41245;-60
2022/01/20 08:45:30;;;;;;;48.60;26.00;;;;;13.48;97630.40;;;;111462;1244;41152;-61
2022/01/20 08:47:59;;;;;;;55.70;26.30;;;;;14.58;97622.20;;;;111290;1244;41155;-60
2022/01/20 08:50:55;;;;;;;48.10;25.00;;;;;15.80;97614.00;;;;111270;1242;41626;-59
2022/01/20 08:53:26;;;;;;;47.90;24.30;;;;;16.68;97606.40;;;;111662;1242;42509;-59
2022/01/20 08:55:55;;;;;;;46.50;25.50;;;;;17.52;97599.80;;;;111534;1244;41305;-60
2022/01/20 08:58:25;;;;;;;53.10;29.00;;;;;18.40;97606.40;;;;111763;1242;41162;-59
2022/01/20 09:00:55;;;;;;;51.50;29.60;;;;;18.98;97607.20;;;;111201;1244;335611;-60
2022/01/20 09:03:25;;;;;;;48.00;25.10;;;;;19.88;97601.20;;;;111468;1244;42197;-59
2022/01/20 09:05:55;;;;;;;43.70;24.20;;;;;20.82;97602.00;;;;111732;1243;41705;-60
2022/01/20 09:08:28;;;;;;;33.40;18.60;;;;;21.66;97589.00;;;;111386;1244;41171;-60
2022/01/20 09:11:07;;;;;;;30.50;16.50;;;;;21.40;97588.40;;;;111363;1245;41840;-60
2022/01/20 09:16:25;;;;;;;32.20;17.20;;;;;21.58;97575.20;;;;111441;1244;41141;-60
2022/01/20 09:18:59;;;;;;;31.40;17.80;;;;;21.90;97577.80;;;;111503;1243;41252;-60
2022/01/20 09:21:31;;;;;;;30.00;16.60;;;;;22.40;97559.80;;;;111552;1243;41155;-60
2022/01/20 09:24:01;;;;;;;23.30;12.70;;;;;22.60;97556.40;;;;111545;1244;41158;-60
2022/01/20 09:26:30;;;;;;;19.70;11.10;;;;;23.20;97537.60;;;;111432;1244;41659;-59
2022/01/20 09:29:01;;;;;;;20.90;11.00;;;;;23.84;97537.20;;;;111492;1243;41543;-60
2022/01/20 09:31:36;;;;;;;19.90;10.00;;;;;23.88;97532.80;;;;111482;1244;41251;-60
2022/01/20 09:34:06;;;;;;;20.70;10.00;;;;;24.30;97522.00;;;;111230;1245;41342;-60
2022/01/20 09:36:37;;;;;;;18.20;8.90;;;;;24.20;97525.80;;;;111386;1244;41434;-60
2022/01/20 09:39:06;;;;;;;19.50;9.30;;;;;23.70;97523.40;;;;111271;1244;41301;-59
2022/01/20 09:41:49;;;;;;;18.40;9.30;;;;;23.32;97518.60;;;;111421;1244;42145;-60
2022/01/20 09:44:19;;;;;;;18.00;8.90;;;;;23.54;97519.80;;;;111791;1243;41144;-59
2022/01/20 09:46:48;;;;;;;20.80;8.90;;;;;23.64;97520.00;;;;111407;1242;41153;-60
2022/01/20 09:49:28;;;;;;;16.10;8.50;;;;;24.34;97510.60;;;;111544;1243;41345;-60
2022/01/20 09:51:59;;;;;;;17.00;8.20;;;;;25.00;97508.60;;;;111567;1244;41866;-59
2022/01/20 09:54:38;;;;;;;17.90;8.60;;;;;25.76;97495.60;;;;111710;1243;41374;-59
2022/01/20 09:57:17;;;;;;;21.20;8.90;;;;;24.48;97485.80;;;;111789;1243;41256;-59
2022/01/20 09:59:48;;;;;;;14.90;8.10;;;;;24.10;97481.80;;;;111559;1243;41398;-59
2022/01/20 10:02:19;;;;;;;;;;;;;19.36;97492.00;;;;111496;1244;41133;-59
2022/01/20 10:04:56;;;;;;;14.90;7.50;;;;;22.42;97476.80;;;;111733;1242;41159;-60
2022/01/20 10:07:35;;;;;;;14.70;6.90;;;;;21.64;97494.20;;;;111693;1243;41327;-60
2022/01/20 10:10:14;;;;;;;16.40;6.80;;;;;19.96;97499.00;;;;111428;1243;41244;-59
2022/01/20 10:13:06;;;;;;;21.90;8.10;;;;;18.12;97503.60;;;;111698;1242;41248;-61
2022/01/20 10:16:03;;;;;;;20.30;8.20;;;;;14.70;97514.40;;;;111757;1244;41236;-60
2022/01/20 10:18:51;;;;;;;15.90;8.10;;;;;12.90;97504.00;;;;111452;1241;42300;-61
2022/01/20 10:21:29;;;;;;;15.90;8.00;;;;;11.22;97501.60;;;;111523;1244;41175;-60
2022/01/20 10:24:18;;;;;;;16.40;7.70;;;;;10.32;97503.00;;;;111804;1242;41940;-61
2022/01/20 10:27:09;;;;;;;15.30;7.40;;;;;9.44;97491.40;;;;111799;1241;42524;-61
2022/01/20 10:29:40;;;;;;;17.20;8.20;;;;;8.94;97493.60;;;;111505;1244;41387;-60
2022/01/20 10:32:21;;;;;;;15.30;7.40;;;;;7.88;97503.20;;;;111460;1243;41738;-60
2022/01/20 10:35:02;;;;;;;15.20;7.30;;;;;7.10;97499.20;;;;111746;1243;41258;-61
2022/01/20 10:37:34;;;;;;;17.00;7.80;;;;;6.80;97492.20;;;;111556;1241;41247;-62
2022/01/20 10:40:11;;;;;;;15.00;7.40;;;;;6.60;97480.60;;;;111432;1241;42426;-61
2022/01/20 10:42:46;;;;;;;17.20;7.90;;;;;6.50;97468.60;;;;111801;1241;42351;-62
2022/01/20 10:45:23;;;;;;;18.40;8.00;;;;;7.18;97456.00;;;;111555;1241;41153;-60
2022/01/20 10:47:55;;;;;;;17.50;8.30;;;;;8.02;97436.20;;;;111513;1243;41894;-61
2022/01/20 10:50:28;;;;;;;18.30;7.80;;;;;9.74;97443.60;;;;111595;1244;42469;-60
2022/01/20 10:53:03;;;;;;;15.50;7.50;;;;;11.96;97392.60;;;;111340;1244;41265;-60
2022/01/20 10:55:35;;;;;;;15.90;8.10;;;;;15.04;97406.00;;;;111505;1244;42183;-61
2022/01/20 10:58:23;;;;;;;17.30;7.50;;;;;16.28;97393.00;;;;111851;1241;41150;-60
2022/01/20 11:00:56;;;;;;;15.10;7.90;;;;;16.52;97376.40;;;;111836;1241;41332;-60
2022/01/20 11:03:28;;;;;;;15.10;7.70;;;;;15.54;97379.60;;;;111866;1241;41110;-60
2022/01/20 11:05:59;;;;;;;16.70;7.30;;;;;16.16;97378.80;;;;111841;1241;41150;-60
2022/01/20 11:08:40;;;;;;;14.50;6.90;;;;;15.60;97368.20;;;;111570;1244;42213;-60
2022/01/20 11:11:14;;;;;;;14.40;7.20;;;;;15.98;97348.40;;;;111554;1244;41242;-60
2022/01/20 11:14:13;;;;;;;16.40;7.50;;;;;18.26;97343.80;;;;111613;1243;41261;-60
2022/01/20 11:16:43;;;;;;;15.70;7.10;;;;;17.48;97367.60;;;;111553;1244;42594;-59
2022/01/20 11:19:21;;;;;;;17.30;7.40;;;;;15.18;97369.60;;;;111573;1244;41255;-60
2022/01/20 11:21:51;;;;;;;15.90;6.80;;;;;14.24;97357.00;;;;111538;1244;41175;-59
2022/01/20 11:24:24;;;;;;;18.00;7.20;;;;;16.10;97328.80;;;;111576;1241;41234;-60
2022/01/20 11:27:40;;;;;;;15.00;6.60;;;;;18.18;97335.80;;;;111817;1241;42247;-60
2022/01/20 11:30:33;;;;;;;16.20;7.90;;;;;16.58;97340.80;;;;111800;1241;41516;-59
2022/01/20 11:33:36;;;;;;;16.60;8.10;;;;;14.76;97341.80;;;;111663;1244;41254;-59
2022/01/20 11:36:09;;;;;;;15.30;7.30;;;;;12.34;97333.60;;;;111838;1241;42550;-58
2022/01/20 11:38:50;;;;;;;15.30;7.40;;;;;15.00;97304.00;;;;111663;1244;41294;-59
2022/01/20 11:41:21;;;;;;;13.70;7.10;;;;;16.42;97319.80;;;;111854;1242;41125;-59
2022/01/20 11:43:52;;;;;;;15.40;6.80;;;;;15.88;97326.60;;;;111766;1242;41587;-59
2022/01/20 11:46:24;;;;;;;14.70;7.50;;;;;14.62;97326.40;;;;111800;1243;41578;-60
2022/01/20 11:49:01;;;;;;;15.60;7.50;;;;;13.40;97326.80;;;;111759;1243;41626;-60
2022/01/20 11:51:46;;;;;;;17.60;8.00;;;;;11.12;97327.00;;;;111852;1241;41712;-60
2022/01/20 11:54:37;;;;;;;17.40;7.40;;;;;10.38;97319.80;;;;111811;1241;41946;-59
2022/01/20 11:57:31;;;;;;;17.70;7.80;;;;;9.34;97318.20;;;;111841;1241;41253;-60
2022/01/20 12:00:02;;;;;;;17.10;7.80;;;;;8.60;97313.20;;;;111818;1241;41143;-60
2022/01/20 12:02:39;;;;;;;17.80;7.20;;;;;8.00;97302.60;;;;111768;1241;41255;-62
2022/01/20 12:05:27;;;;;;;16.20;7.50;;;;;7.66;97305.20;;;;111452;1244;41148;-62
2022/01/20 12:08:20;;;;;;;16.50;7.40;;;;;7.34;97301.20;;;;111740;1241;41130;-61
2022/01/20 12:11:04;;;;;;;18.20;8.20;;;;;7.04;97295.20;;;;111767;1242;42009;-59
2022/01/20 12:13:45;;;;;;;17.30;8.10;;;;;6.60;97291.40;;;;111858;1241;42361;-60
2022/01/20 12:16:33;;;;;;;16.20;7.70;;;;;6.22;97284.40;;;;111784;1241;41266;-60
2022/01/20 12:19:08;;;;;;;18.70;9.10;;;;;5.82;97275.60;;;;111801;1241;41129;-59
2022/01/20 12:21:38;;;;;;;20.80;9.20;;;;;5.00;97285.80;;;;111780;1243;41602;-60
2022/01/20 12:24:07;;;;;;;23.40;9.80;;;;;4.80;97286.20;;;;111455;1244;41178;-58
2022/01/20 12:26:37;;;;;;;20.00;8.30;;;;;4.18;97292.80;;;;111538;1243;41815;-60
2022/01/20 12:29:07;;;;;;;19.00;8.40;;;;;4.18;97279.40;;;;111484;1244;43295;-60
2022/01/20 12:31:49;;;;;;;18.10;8.60;;;;;4.14;97274.60;;;;111694;1244;42353;-61
2022/01/20 12:34:21;;;;;;;17.70;8.20;;;;;4.10;97267.40;;;;111777;1242;41140;-61
2022/01/20 12:36:55;;;;;;;19.70;8.20;;;;;4.00;97258.60;;;;111730;1244;41608;-60
2022/01/20 12:39:32;;;;;;;19.50;8.50;;;;;3.90;97261.80;;;;111697;1243;41146;-60
2022/01/20 12:42:07;;;;;;;24.20;9.90;;;;;3.86;97261.20;;;;111699;1244;41130;-63
2022/01/20 12:45:00;;;;;;;17.70;8.70;;;;;3.64;97252.00;;;;111715;1242;41200;-60
2022/01/20 12:47:30;;;;;;;17.50;8.00;;;;;3.70;97250.60;;;;111556;1244;41133;-62
2022/01/20 12:50:01;;;;;;;19.30;7.70;;;;;3.60;97245.40;;;;111758;1243;42030;-60
2022/01/20 12:52:31;;;;;;;18.50;7.90;;;;;3.70;97236.40;;;;111781;1242;41538;-61
2022/01/20 12:55:00;;;;;;;21.30;8.80;;;;;3.80;97231.00;;;;111745;1243;41167;-60
2022/01/20 12:57:29;;;;;;;18.20;8.50;;;;;3.90;97239.20;;;;111444;1244;41127;-61
2022/01/20 12:59:58;;;;;;;19.50;8.50;;;;;4.10;97234.60;;;;111644;1243;42082;-60
2022/01/20 13:02:29;;;;;;;18.20;9.00;;;;;4.20;97242.60;;;;111680;1243;41232;-62
2022/01/20 13:05:02;;;;;;;19.20;8.50;;;;;4.30;97245.20;;;;111822;1243;41146;-60
2022/01/20 13:07:34;;;;;;;20.30;9.00;;;;;4.30;97248.00;;;;111775;1243;41191;-64
2022/01/20 13:10:32;;;;;;;19.30;10.00;;;;;4.40;97246.80;;;;111730;1241;41303;-60
2022/01/20 13:13:05;;;;;;;21.00;9.50;;;;;4.50;97241.00;;;;111813;1243;41201;-62
2022/01/20 13:15:34;;;;;;;19.70;9.20;;;;;4.60;97237.20;;;;111517;1244;42721;-63
2022/01/20 13:18:11;;;;;;;20.70;9.50;;;;;4.66;97228.20;;;;111534;1244;41200;-63
2022/01/20 13:20:46;;;;;;;22.80;10.60;;;;;4.70;97226.80;;;;111565;1243;42151;-61
2022/01/20 13:25:44;;;;;;;22.80;11.10;;;;;4.70;97224.40;;;;111748;1243;41776;-60
2022/01/20 13:28:14;;;;;;;23.50;10.00;;;;;4.60;97213.80;;;;111730;1243;41726;-60
2022/01/20 13:30:48;;;;;;;21.50;10.50;;;;;4.50;97214.40;;;;111727;1241;41137;-61
2022/01/20 13:33:20;;;;;;;22.00;9.80;;;;;4.46;97210.40;;;;111672;1241;41251;-61
2022/01/20 13:35:56;;;;;;;19.80;10.10;;;;;4.40;97202.40;;;;111713;1241;41258;-61
2022/01/20 13:38:38;;;;;;;19.70;9.90;;;;;4.40;97199.80;;;;111729;1241;42572;-61
2022/01/20 13:41:08;;;;;;;21.40;10.10;;;;;4.40;97202.60;;;;111440;1244;41253;-60
2022/01/20 13:46:38;;;;;;;15.70;8.00;;;;;4.30;97205.60;;;;111765;1242;41332;-61
2022/01/20 13:49:15;;;;;;;19.30;8.30;;;;;4.20;97208.80;;;;111452;1244;41257;-60
2022/01/20 13:51:45;;;;;;;17.00;8.00;;;;;4.10;97212.60;;;;111735;1243;41123;-60
2022/01/20 13:54:14;;;;;;;17.30;8.80;;;;;4.10;97207.00;;;;111712;1243;43012;-59